Terminal Aerodrome Forecast
Issued by NWS

Home | Current Version | Previous Version | Text Only | Print | Product List | Glossary On
Versions: 1 2 3 4 5 6 7 8 9 10 11 12 13 14 15 16 17 18 19
000
FTUS44 KLIX 030700 AAB
TAFMCB
TAF AMD
KMCB 030734Z 0308/0406 VRB03KT 1/4SM FG OVC003
     FM031600 17008KT P6SM OVC008
     FM031800 18008KT P6SM BKN015
     FM032100 18008KT P6SM BKN025
     FM040000 18008KT 3SM BR BKN020
     FM040300 18008KT 1/2SM FG OVC003=

USA.gov is the U.S. government's official web portal to all federal, state and local government web resources and services.